This is the latest recevied weather packets stored in our database for station/object S56VIL-11. If no packets are shown the sender has not sent any weather packets the latest 10 day(s).
| Time | Temp. | Humidity | Pressure | Rain* | Wind** | Luminosity | Snow |
|---|---|---|---|---|---|---|---|
| 1788474337 | 21.11° C | 56% | 1033.8 hPa | - | - | - | - |
| 1788473437 | 21.67° C | 56% | 1033.8 hPa | - | - | - | - |
| 1788471637 | 21.67° C | 56% | 1033.6 hPa | - | - | - | - |
| 1788470737 | 21.67° C | 56% | 1033.8 hPa | - | - | - | - |
| 1788469837 | 21.67° C | 56% | 1033.6 hPa | - | - | - | - |
| 1788468937 | 21.67° C | 56% | 1033.5 hPa | - | - | - | - |
| 1788468037 | 21.67° C | 55% | 1033.4 hPa | - | - | - | - |
| 1788467137 | 21.67° C | 55% | 1033.4 hPa | - | - | - | - |
| 1788466237 | 22.22° C | 55% | 1033.4 hPa | - | - | - | - |
| 1788465336 | 22.22° C | 55% | 1033.4 hPa | - | - | - | - |
| 1788463536 | 21.67° C | 55% | 1033.3 hPa | - | - | - | - |
| 1788450936 | 26.11° C | 53% | 1032.6 hPa | - | - | - | - |
| 1788449136 | 26.11° C | 53% | 1032.5 hPa | - | - | - | - |
| 1788448236 | 27.22° C | 53% | 1032.5 hPa | - | - | - | - |
| 1788445536 | 29.44° C | 53% | 1032.7 hPa | - | - | - | - |
| 1788444636 | 31.67° C | 52% | 1032.6 hPa | - | - | - | - |
| 1788441935 | 27.78° C | 53% | 1033 hPa | - | - | - | - |
| 1788441035 | 26.11° C | 55% | 1033 hPa | - | - | - | - |
| 1788440135 | 26.67° C | 54% | 1033 hPa | - | - | - | - |
| 1788438341 | 27.22° C | 54% | 1033.1 hPa | - | - | - | - |
| 1788435635 | 26.67° C | 55% | 1033.5 hPa | - | - | - | - |
| 1788433835 | 26.11° C | 56% | 1033.6 hPa | - | - | - | - |
| 1788432943 | 27.22° C | 56% | 1033.7 hPa | - | - | - | - |
| 1788432035 | 28.89° C | 56% | 1033.8 hPa | - | - | - | - |
| 1788431143 | 31.11° C | 55% | 1033.9 hPa | - | - | - | - |
* Rain since midnight (hover to see other rain measurements)
** Current wind speed in m/s (hover to see current wind gust speed)